createdAt,value
2019-05-26T00:08:22.806Z,25.25
2019-05-26T00:18:26.381Z,24.73
2019-05-26T00:28:30.196Z,24.32
2019-05-26T00:38:33.761Z,23.87
2019-05-26T00:48:37.329Z,23.73
2019-05-26T00:58:40.871Z,23.41
2019-05-26T01:08:44.421Z,23.20
2019-05-26T01:18:47.990Z,22.95
2019-05-26T01:28:51.565Z,22.79
2019-05-26T01:38:55.159Z,22.64
2019-05-26T01:48:58.732Z,22.59
2019-05-26T01:59:02.287Z,22.51
2019-05-26T02:09:07.691Z,22.39
2019-05-26T02:19:11.262Z,22.32
2019-05-26T02:29:14.825Z,22.22
2019-05-26T02:39:18.399Z,22.22
2019-05-26T02:49:21.987Z,22.11
2019-05-26T02:59:25.576Z,22.06
2019-05-26T03:09:29.116Z,22.07
2019-05-26T03:19:35.895Z,22.04
2019-05-26T03:29:39.470Z,21.99
2019-05-26T03:39:45.972Z,21.98
2019-05-26T03:49:48.309Z,21.90
2019-05-26T03:59:52.333Z,22.03
2019-05-26T04:10:04.899Z,22.30
2019-05-26T04:20:01.128Z,22.73
2019-05-26T04:30:08.164Z,23.08
2019-05-26T04:40:25.663Z,23.39
2019-05-26T04:50:17.016Z,23.73
2019-05-26T05:00:20.610Z,24.11
2019-05-26T05:10:24.165Z,24.44
2019-05-26T05:20:27.760Z,24.72
2019-05-26T05:30:31.365Z,24.80
2019-05-26T05:40:34.930Z,24.80
2019-05-26T05:50:39.498Z,25.09
2019-05-26T06:00:43.244Z,25.29
2019-05-26T06:10:46.837Z,25.35
2019-05-26T06:20:50.439Z,25.41
2019-05-26T06:30:54.002Z,25.33
2019-05-26T06:40:57.558Z,25.42
2019-05-26T06:51:01.142Z,25.64
2019-05-26T07:01:04.963Z,25.75
2019-05-26T07:11:08.502Z,25.73
2019-05-26T07:21:12.075Z,25.85
2019-05-26T07:31:15.626Z,25.85
2019-05-26T07:41:19.703Z,25.87
2019-05-26T07:51:23.300Z,25.92
2019-05-26T08:01:35.508Z,25.87
2019-05-26T08:11:32.082Z,25.75
2019-05-26T08:21:35.675Z,25.62
2019-05-26T08:31:39.285Z,25.70
2019-05-26T08:41:43.157Z,25.66
2019-05-26T08:51:46.701Z,25.66
2019-05-26T09:01:50.271Z,25.62
2019-05-26T09:11:53.842Z,25.58
2019-05-26T09:21:57.411Z,25.35
2019-05-26T09:32:00.946Z,25.32
2019-05-26T09:42:05.281Z,25.23
2019-05-26T09:52:08.832Z,25.09
2019-05-26T10:02:12.397Z,25.09
2019-05-26T10:12:15.978Z,25.13
2019-05-26T10:22:19.521Z,25.08
2019-05-26T10:32:23.098Z,24.95
2019-05-26T10:42:26.639Z,24.87
2019-05-26T10:52:30.475Z,24.87
2019-05-26T11:02:34.964Z,24.83
2019-05-26T11:12:38.516Z,24.74
2019-05-26T11:22:42.080Z,24.77
2019-05-26T11:32:45.672Z,24.75
2019-05-26T11:42:49.251Z,24.73
2019-05-26T11:52:52.809Z,24.78
2019-05-26T12:02:59.789Z,24.77
2019-05-26T12:13:01.970Z,24.77
2019-05-26T12:23:05.519Z,24.79
2019-05-26T12:33:09.058Z,24.79
2019-05-26T12:43:14.181Z,24.89
2019-05-26T12:53:20.760Z,24.91
2019-05-26T13:03:24.322Z,24.93
2019-05-26T13:13:27.857Z,24.97
2019-05-26T13:23:31.389Z,24.96
2019-05-26T13:33:34.948Z,24.93
2019-05-26T13:43:38.507Z,24.95
2019-05-26T13:53:42.065Z,25.00
2019-05-26T14:03:45.595Z,25.10
2019-05-26T14:13:49.185Z,25.12
2019-05-26T14:23:52.809Z,25.18
2019-05-26T14:33:56.559Z,25.22
2019-05-26T14:44:00.104Z,25.24
2019-05-26T14:54:03.890Z,25.23
2019-05-26T15:04:07.451Z,25.27
2019-05-26T15:14:11.199Z,25.30
2019-05-26T15:24:14.727Z,25.28
2019-05-26T15:34:18.323Z,25.36
2019-05-26T15:44:22.020Z,25.40
2019-05-26T15:54:25.600Z,25.44
2019-05-26T16:04:29.185Z,25.43
2019-05-26T16:14:32.710Z,25.44
2019-05-26T16:24:36.839Z,25.41
2019-05-26T16:34:40.512Z,25.40
2019-05-26T16:44:44.118Z,25.36
2019-05-26T16:54:47.653Z,25.33
2019-05-26T17:04:51.503Z,25.31
2019-05-26T17:14:55.224Z,25.28
2019-05-26T17:25:00.043Z,25.26
2019-05-26T17:35:04.110Z,25.24
2019-05-26T17:45:08.200Z,25.21
2019-05-26T17:55:11.882Z,25.18
2019-05-26T18:05:15.422Z,25.16
2019-05-26T18:15:18.962Z,25.12
2019-05-26T18:25:22.493Z,25.10
2019-05-26T18:35:26.033Z,25.03
2019-05-26T18:45:29.572Z,24.93
2019-05-26T18:55:33.108Z,24.83
2019-05-26T19:05:38.452Z,24.69
2019-05-26T19:15:42.038Z,24.60
2019-05-26T19:25:45.821Z,24.51
2019-05-26T19:35:49.417Z,24.52
2019-05-26T19:45:53.342Z,24.48
2019-05-26T19:55:56.983Z,24.42
2019-05-26T20:06:00.579Z,24.37
2019-05-26T20:16:04.866Z,24.34
2019-05-26T20:26:08.404Z,24.25
2019-05-26T20:36:12.001Z,24.15
2019-05-26T20:46:15.579Z,24.13
2019-05-26T20:56:19.135Z,24.09
2019-05-26T21:06:22.726Z,24.05
2019-05-26T21:16:26.498Z,24.01
2019-05-26T21:26:30.249Z,23.96
2019-05-26T21:36:33.902Z,23.92
2019-05-26T21:46:37.470Z,23.87
2019-05-26T21:56:41.013Z,23.86
2019-05-26T22:06:44.543Z,23.82
2019-05-26T22:16:48.127Z,23.78
2019-05-26T22:26:51.702Z,23.73
2019-05-26T22:36:55.287Z,23.69
2019-05-26T22:46:58.817Z,23.65
2019-05-26T22:57:02.409Z,23.63
2019-05-26T23:07:06.418Z,23.59
2019-05-26T23:17:09.991Z,23.55
2019-05-26T23:27:13.549Z,23.51
2019-05-26T23:37:17.139Z,23.44
2019-05-26T23:47:20.699Z,23.42
2019-05-26T23:57:26.559Z,23.38
